sensor_id;sensor_type;location;lat;lon;timestamp;temperature;humidity
72114;SHT31;59989;46.220;19.888;2022-10-26T00:01:22;10.12;96.32
72114;SHT31;59989;46.220;19.888;2022-10-26T00:04:24;10.11;96.41
72114;SHT31;59989;46.220;19.888;2022-10-26T00:07:30;10.02;96.46
72114;SHT31;59989;46.220;19.888;2022-10-26T00:10:34;9.98;96.59
72114;SHT31;59989;46.220;19.888;2022-10-26T00:13:37;10.01;96.55
72114;SHT31;59989;46.220;19.888;2022-10-26T00:16:40;9.95;96.49
72114;SHT31;59989;46.220;19.888;2022-10-26T00:19:42;9.94;96.47
72114;SHT31;59989;46.220;19.888;2022-10-26T00:22:45;9.91;96.46
72114;SHT31;59989;46.220;19.888;2022-10-26T00:25:54;9.90;96.56
72114;SHT31;59989;46.220;19.888;2022-10-26T00:28:57;9.84;96.59
72114;SHT31;59989;46.220;19.888;2022-10-26T00:32:00;9.81;96.67
72114;SHT31;59989;46.220;19.888;2022-10-26T00:35:02;9.73;96.70
72114;SHT31;59989;46.220;19.888;2022-10-26T00:38:25;9.70;96.81
72114;SHT31;59989;46.220;19.888;2022-10-26T00:41:30;9.61;96.78
72114;SHT31;59989;46.220;19.888;2022-10-26T00:48:02;9.65;96.77
72114;SHT31;59989;46.220;19.888;2022-10-26T00:51:14;9.60;96.83
72114;SHT31;59989;46.220;19.888;2022-10-26T00:54:19;9.50;96.78
72114;SHT31;59989;46.220;19.888;2022-10-26T00:57:22;9.39;96.65
72114;SHT31;59989;46.220;19.888;2022-10-26T01:00:25;9.33;96.65
72114;SHT31;59989;46.220;19.888;2022-10-26T01:03:28;9.36;96.73
72114;SHT31;59989;46.220;19.888;2022-10-26T01:06:33;9.36;96.77
72114;SHT31;59989;46.220;19.888;2022-10-26T01:09:36;9.36;96.86
72114;SHT31;59989;46.220;19.888;2022-10-26T01:12:39;9.37;96.83
72114;SHT31;59989;46.220;19.888;2022-10-26T01:22:21;9.15;96.78
72114;SHT31;59989;46.220;19.888;2022-10-26T01:29:04;8.98;96.77
72114;SHT31;59989;46.220;19.888;2022-10-26T01:32:30;8.92;96.84
72114;SHT31;59989;46.220;19.888;2022-10-26T01:39:36;8.91;96.74
72114;SHT31;59989;46.220;19.888;2022-10-26T01:42:29;8.86;96.65
72114;SHT31;59989;46.220;19.888;2022-10-26T01:45:33;8.81;96.69
72114;SHT31;59989;46.220;19.888;2022-10-26T01:48:38;8.72;96.76
72114;SHT31;59989;46.220;19.888;2022-10-26T01:51:46;8.68;96.72
72114;SHT31;59989;46.220;19.888;2022-10-26T01:54:50;8.67;96.76
72114;SHT31;59989;46.220;19.888;2022-10-26T01:58:04;8.61;96.82
72114;SHT31;59989;46.220;19.888;2022-10-26T02:17:55;9.42;97.99
72114;SHT31;59989;46.220;19.888;2022-10-26T02:21:05;9.30;98.01
72114;SHT31;59989;46.220;19.888;2022-10-26T02:24:11;9.12;97.96
72114;SHT31;59989;46.220;19.888;2022-10-26T02:27:19;8.91;97.89
72114;SHT31;59989;46.220;19.888;2022-10-26T02:30:22;8.72;97.66
72114;SHT31;59989;46.220;19.888;2022-10-26T02:33:28;8.67;97.55
72114;SHT31;59989;46.220;19.888;2022-10-26T02:36:34;8.58;97.38
72114;SHT31;59989;46.220;19.888;2022-10-26T02:39:38;8.50;97.21
72114;SHT31;59989;46.220;19.888;2022-10-26T02:42:44;8.38;97.21
72114;SHT31;59989;46.220;19.888;2022-10-26T02:45:50;8.36;97.23
72114;SHT31;59989;46.220;19.888;2022-10-26T02:48:54;8.29;97.17
72114;SHT31;59989;46.220;19.888;2022-10-26T02:52:05;8.20;97.08
72114;SHT31;59989;46.220;19.888;2022-10-26T02:55:14;8.14;97.14
72114;SHT31;59989;46.220;19.888;2022-10-26T02:58:22;8.13;97.25
72114;SHT31;59989;46.220;19.888;2022-10-26T03:01:27;8.07;97.22
72114;SHT31;59989;46.220;19.888;2022-10-26T03:04:32;8.09;97.15
72114;SHT31;59989;46.220;19.888;2022-10-26T03:07:35;8.06;97.10
72114;SHT31;59989;46.220;19.888;2022-10-26T03:10:42;7.96;97.06
72114;SHT31;59989;46.220;19.888;2022-10-26T03:13:45;7.92;97.09
72114;SHT31;59989;46.220;19.888;2022-10-26T03:16:47;7.89;97.12
72114;SHT31;59989;46.220;19.888;2022-10-26T03:19:49;7.86;96.98
72114;SHT31;59989;46.220;19.888;2022-10-26T03:22:52;7.85;97.07
72114;SHT31;59989;46.220;19.888;2022-10-26T03:25:58;7.81;97.11
72114;SHT31;59989;46.220;19.888;2022-10-26T03:29:00;7.78;97.00
72114;SHT31;59989;46.220;19.888;2022-10-26T03:32:03;7.77;97.08
72114;SHT31;59989;46.220;19.888;2022-10-26T03:35:06;7.81;97.11
72114;SHT31;59989;46.220;19.888;2022-10-26T03:38:08;7.82;97.19
72114;SHT31;59989;46.220;19.888;2022-10-26T03:41:17;7.77;97.27
72114;SHT31;59989;46.220;19.888;2022-10-26T03:44:19;7.78;97.32
72114;SHT31;59989;46.220;19.888;2022-10-26T03:47:22;7.74;97.24
72114;SHT31;59989;46.220;19.888;2022-10-26T03:50:24;7.71;97.11
72114;SHT31;59989;46.220;19.888;2022-10-26T03:53:26;7.64;97.10
72114;SHT31;59989;46.220;19.888;2022-10-26T03:56:29;7.64;97.20
72114;SHT31;59989;46.220;19.888;2022-10-26T03:59:31;7.68;97.17
72114;SHT31;59989;46.220;19.888;2022-10-26T04:02:33;7.67;97.20
72114;SHT31;59989;46.220;19.888;2022-10-26T04:05:36;7.61;97.18
72114;SHT31;59989;46.220;19.888;2022-10-26T04:08:38;7.52;97.16
72114;SHT31;59989;46.220;19.888;2022-10-26T04:11:41;7.48;97.18
72114;SHT31;59989;46.220;19.888;2022-10-26T04:14:43;7.44;97.10
72114;SHT31;59989;46.220;19.888;2022-10-26T04:17:45;7.41;97.11
72114;SHT31;59989;46.220;19.888;2022-10-26T04:20:48;7.31;97.08
72114;SHT31;59989;46.220;19.888;2022-10-26T04:23:51;7.26;97.02
72114;SHT31;59989;46.220;19.888;2022-10-26T04:26:53;7.17;97.03
72114;SHT31;59989;46.220;19.888;2022-10-26T04:29:56;7.16;97.03
72114;SHT31;59989;46.220;19.888;2022-10-26T04:32:58;7.11;97.09
72114;SHT31;59989;46.220;19.888;2022-10-26T04:36:01;7.11;96.98
72114;SHT31;59989;46.220;19.888;2022-10-26T04:39:03;7.04;97.03
72114;SHT31;59989;46.220;19.888;2022-10-26T04:42:05;7.07;97.13
72114;SHT31;59989;46.220;19.888;2022-10-26T04:45:08;7.09;97.14
72114;SHT31;59989;46.220;19.888;2022-10-26T04:48:12;7.14;97.15
72114;SHT31;59989;46.220;19.888;2022-10-26T04:51:14;7.16;97.20
72114;SHT31;59989;46.220;19.888;2022-10-26T04:54:17;7.11;97.15
72114;SHT31;59989;46.220;19.888;2022-10-26T04:57:19;7.13;97.10
72114;SHT31;59989;46.220;19.888;2022-10-26T05:00:21;7.07;97.04
72114;SHT31;59989;46.220;19.888;2022-10-26T05:03:24;7.06;97.12
72114;SHT31;59989;46.220;19.888;2022-10-26T05:06:26;7.01;97.14
72114;SHT31;59989;46.220;19.888;2022-10-26T05:09:29;7.00;97.17
72114;SHT31;59989;46.220;19.888;2022-10-26T05:12:32;7.07;97.09
72114;SHT31;59989;46.220;19.888;2022-10-26T05:15:34;7.03;97.06
72114;SHT31;59989;46.220;19.888;2022-10-26T05:18:37;7.00;97.18
72114;SHT31;59989;46.220;19.888;2022-10-26T05:21:39;6.97;97.18
72114;SHT31;59989;46.220;19.888;2022-10-26T05:24:42;6.92;97.17
72114;SHT31;59989;46.220;19.888;2022-10-26T05:27:44;6.89;97.18
72114;SHT31;59989;46.220;19.888;2022-10-26T05:30:47;6.95;96.98
72114;SHT31;59989;46.220;19.888;2022-10-26T05:33:50;6.88;96.94
72114;SHT31;59989;46.220;19.888;2022-10-26T05:36:52;6.93;96.95
72114;SHT31;59989;46.220;19.888;2022-10-26T05:39:55;6.97;96.95
72114;SHT31;59989;46.220;19.888;2022-10-26T05:42:59;6.97;96.91
72114;SHT31;59989;46.220;19.888;2022-10-26T05:46:02;7.03;96.97
72114;SHT31;59989;46.220;19.888;2022-10-26T05:49:04;7.10;96.88
72114;SHT31;59989;46.220;19.888;2022-10-26T05:52:06;7.17;96.87
72114;SHT31;59989;46.220;19.888;2022-10-26T05:55:11;7.16;96.90
72114;SHT31;59989;46.220;19.888;2022-10-26T05:58:14;7.44;97.14
72114;SHT31;59989;46.220;19.888;2022-10-26T06:04:46;7.72;97.37
72114;SHT31;59989;46.220;19.888;2022-10-26T06:07:49;7.79;97.40
72114;SHT31;59989;46.220;19.888;2022-10-26T06:10:54;7.82;97.32
72114;SHT31;59989;46.220;19.888;2022-10-26T06:13:58;7.79;97.17
72114;SHT31;59989;46.220;19.888;2022-10-26T06:30:20;8.34;97.18
72114;SHT31;59989;46.220;19.888;2022-10-26T06:33:24;8.37;97.18
72114;SHT31;59989;46.220;19.888;2022-10-26T06:36:32;8.37;96.98
72114;SHT31;59989;46.220;19.888;2022-10-26T06:39:37;8.38;96.87
72114;SHT31;59989;46.220;19.888;2022-10-26T06:42:41;8.44;96.81
72114;SHT31;59989;46.220;19.888;2022-10-26T06:45:45;8.46;96.68
72114;SHT31;59989;46.220;19.888;2022-10-26T06:49:01;8.64;96.81
72114;SHT31;59989;46.220;19.888;2022-10-26T06:52:16;8.86;96.92
72114;SHT31;59989;46.220;19.888;2022-10-26T06:55:19;9.09;97.09
72114;SHT31;59989;46.220;19.888;2022-10-26T06:58:24;9.20;96.92
72114;SHT31;59989;46.220;19.888;2022-10-26T07:01:29;9.29;96.80
72114;SHT31;59989;46.220;19.888;2022-10-26T07:04:31;9.39;96.78
72114;SHT31;59989;46.220;19.888;2022-10-26T07:07:36;9.55;96.74
72114;SHT31;59989;46.220;19.888;2022-10-26T07:10:41;9.73;96.83
72114;SHT31;59989;46.220;19.888;2022-10-26T07:13:44;9.87;96.75
72114;SHT31;59989;46.220;19.888;2022-10-26T07:16:47;9.99;96.49
72114;SHT31;59989;46.220;19.888;2022-10-26T07:19:49;10.09;96.32
72114;SHT31;59989;46.220;19.888;2022-10-26T07:22:55;10.12;96.11
72114;SHT31;59989;46.220;19.888;2022-10-26T07:26:00;10.28;96.00
72114;SHT31;59989;46.220;19.888;2022-10-26T07:29:03;10.48;96.06
72114;SHT31;59989;46.220;19.888;2022-10-26T07:32:05;10.52;95.59
72114;SHT31;59989;46.220;19.888;2022-10-26T07:35:08;10.59;95.32
72114;SHT31;59989;46.220;19.888;2022-10-26T07:38:12;10.76;95.26
72114;SHT31;59989;46.220;19.888;2022-10-26T07:41:14;10.93;95.18
72114;SHT31;59989;46.220;19.888;2022-10-26T07:44:17;11.28;95.38
72114;SHT31;59989;46.220;19.888;2022-10-26T07:47:20;11.49;95.30
72114;SHT31;59989;46.220;19.888;2022-10-26T07:50:23;11.80;95.06
72114;SHT31;59989;46.220;19.888;2022-10-26T07:53:25;12.07;95.01
72114;SHT31;59989;46.220;19.888;2022-10-26T07:56:29;12.30;93.78
72114;SHT31;59989;46.220;19.888;2022-10-26T07:59:31;12.61;94.05
72114;SHT31;59989;46.220;19.888;2022-10-26T08:02:34;12.95;94.29
72114;SHT31;59989;46.220;19.888;2022-10-26T08:05:36;12.97;92.21
72114;SHT31;59989;46.220;19.888;2022-10-26T08:08:39;13.23;92.02
72114;SHT31;59989;46.220;19.888;2022-10-26T08:11:48;13.50;92.02
72114;SHT31;59989;46.220;19.888;2022-10-26T08:14:50;13.74;92.01
72114;SHT31;59989;46.220;19.888;2022-10-26T08:17:53;14.02;91.25
72114;SHT31;59989;46.220;19.888;2022-10-26T08:21:03;14.25;91.41
72114;SHT31;59989;46.220;19.888;2022-10-26T08:24:12;14.63;90.55
72114;SHT31;59989;46.220;19.888;2022-10-26T08:27:15;14.89;89.89
72114;SHT31;59989;46.220;19.888;2022-10-26T08:30:18;15.11;88.75
72114;SHT31;59989;46.220;19.888;2022-10-26T08:33:22;15.39;87.97
72114;SHT31;59989;46.220;19.888;2022-10-26T08:36:26;15.50;88.00
72114;SHT31;59989;46.220;19.888;2022-10-26T08:39:28;15.83;87.78
72114;SHT31;59989;46.220;19.888;2022-10-26T08:42:39;15.84;86.91
72114;SHT31;59989;46.220;19.888;2022-10-26T08:45:49;16.07;86.41
72114;SHT31;59989;46.220;19.888;2022-10-26T08:48:58;16.03;86.22
72114;SHT31;59989;46.220;19.888;2022-10-26T08:52:02;16.12;85.98
72114;SHT31;59989;46.220;19.888;2022-10-26T08:55:13;16.33;85.98
72114;SHT31;59989;46.220;19.888;2022-10-26T08:58:21;16.77;85.76
72114;SHT31;59989;46.220;19.888;2022-10-26T09:01:25;16.77;84.24
72114;SHT31;59989;46.220;19.888;2022-10-26T09:04:30;16.75;84.64
72114;SHT31;59989;46.220;19.888;2022-10-26T09:07:47;16.96;84.26
72114;SHT31;59989;46.220;19.888;2022-10-26T09:20:53;17.51;81.94
72114;SHT31;59989;46.220;19.888;2022-10-26T09:24:15;17.42;81.40
72114;SHT31;59989;46.220;19.888;2022-10-26T09:27:28;17.58;80.73
72114;SHT31;59989;46.220;19.888;2022-10-26T09:30:31;17.55;81.94
72114;SHT31;59989;46.220;19.888;2022-10-26T09:33:35;17.79;81.10
72114;SHT31;59989;46.220;19.888;2022-10-26T09:36:38;18.06;80.42
72114;SHT31;59989;46.220;19.888;2022-10-26T09:39:48;17.79;80.44
72114;SHT31;59989;46.220;19.888;2022-10-26T09:43:00;18.03;80.32
72114;SHT31;59989;46.220;19.888;2022-10-26T09:46:12;18.34;78.60
72114;SHT31;59989;46.220;19.888;2022-10-26T09:49:19;18.41;79.27
72114;SHT31;59989;46.220;19.888;2022-10-26T09:52:22;18.47;78.69
72114;SHT31;59989;46.220;19.888;2022-10-26T09:55:24;18.64;78.65
72114;SHT31;59989;46.220;19.888;2022-10-26T09:58:31;18.58;77.46
72114;SHT31;59989;46.220;19.888;2022-10-26T10:01:35;18.72;76.65
72114;SHT31;59989;46.220;19.888;2022-10-26T10:04:46;18.88;74.77
72114;SHT31;59989;46.220;19.888;2022-10-26T10:08:15;19.02;75.38
72114;SHT31;59989;46.220;19.888;2022-10-26T10:11:18;19.29;73.98
72114;SHT31;59989;46.220;19.888;2022-10-26T10:14:28;19.37;73.85
72114;SHT31;59989;46.220;19.888;2022-10-26T10:17:32;19.37;74.06
72114;SHT31;59989;46.220;19.888;2022-10-26T10:20:34;19.73;73.33
72114;SHT31;59989;46.220;19.888;2022-10-26T10:23:48;19.50;72.75
72114;SHT31;59989;46.220;19.888;2022-10-26T10:30:22;19.97;72.35
72114;SHT31;59989;46.220;19.888;2022-10-26T10:36:35;19.73;72.82
72114;SHT31;59989;46.220;19.888;2022-10-26T10:39:39;19.74;72.71
72114;SHT31;59989;46.220;19.888;2022-10-26T10:42:43;19.77;72.15
72114;SHT31;59989;46.220;19.888;2022-10-26T10:45:48;20.01;72.33
72114;SHT31;59989;46.220;19.888;2022-10-26T10:49:01;20.12;70.62
72114;SHT31;59989;46.220;19.888;2022-10-26T10:52:04;20.08;70.71
72114;SHT31;59989;46.220;19.888;2022-10-26T10:58:26;20.94;68.28
72114;SHT31;59989;46.220;19.888;2022-10-26T11:01:38;21.06;67.47
72114;SHT31;59989;46.220;19.888;2022-10-26T11:05:18;20.80;67.59
72114;SHT31;59989;46.220;19.888;2022-10-26T11:08:50;20.77;66.99
72114;SHT31;59989;46.220;19.888;2022-10-26T11:12:00;21.00;67.03
72114;SHT31;59989;46.220;19.888;2022-10-26T11:15:17;21.08;67.16
72114;SHT31;59989;46.220;19.888;2022-10-26T11:18:28;21.35;67.25
72114;SHT31;59989;46.220;19.888;2022-10-26T11:21:35;21.20;67.05
72114;SHT31;59989;46.220;19.888;2022-10-26T11:25:10;21.48;66.84
72114;SHT31;59989;46.220;19.888;2022-10-26T11:31:54;21.45;67.40
72114;SHT31;59989;46.220;19.888;2022-10-26T11:38:26;21.21;68.79
72114;SHT31;59989;46.220;19.888;2022-10-26T11:41:52;21.01;68.51
72114;SHT31;59989;46.220;19.888;2022-10-26T11:45:03;20.79;68.55
72114;SHT31;59989;46.220;19.888;2022-10-26T11:48:23;20.93;68.26
72114;SHT31;59989;46.220;19.888;2022-10-26T11:54:35;20.93;67.21
72114;SHT31;59989;46.220;19.888;2022-10-26T11:57:39;21.06;66.43
72114;SHT31;59989;46.220;19.888;2022-10-26T12:01:13;21.24;66.90
72114;SHT31;59989;46.220;19.888;2022-10-26T12:04:15;20.90;67.26
72114;SHT31;59989;46.220;19.888;2022-10-26T12:07:26;20.90;68.09
72114;SHT31;59989;46.220;19.888;2022-10-26T12:10:32;20.83;69.25
72114;SHT31;59989;46.220;19.888;2022-10-26T12:13:41;20.67;69.04
72114;SHT31;59989;46.220;19.888;2022-10-26T12:16:55;20.48;69.11
72114;SHT31;59989;46.220;19.888;2022-10-26T12:23:22;21.00;67.58
72114;SHT31;59989;46.220;19.888;2022-10-26T12:26:50;21.06;67.88
72114;SHT31;59989;46.220;19.888;2022-10-26T12:30:21;20.84;66.27
72114;SHT31;59989;46.220;19.888;2022-10-26T12:33:28;20.91;65.89
72114;SHT31;59989;46.220;19.888;2022-10-26T12:36:48;21.11;65.53
72114;SHT31;59989;46.220;19.888;2022-10-26T12:39:50;21.17;65.60
72114;SHT31;59989;46.220;19.888;2022-10-26T12:42:52;21.14;65.05
72114;SHT31;59989;46.220;19.888;2022-10-26T12:53:05;21.78;63.55
72114;SHT31;59989;46.220;19.888;2022-10-26T12:56:16;21.85;64.29
72114;SHT31;59989;46.220;19.888;2022-10-26T13:09:27;23.00;59.33
72114;SHT31;59989;46.220;19.888;2022-10-26T13:12:54;22.55;60.33
72114;SHT31;59989;46.220;19.888;2022-10-26T13:15:58;22.73;60.27
72114;SHT31;59989;46.220;19.888;2022-10-26T13:19:01;22.68;60.97
72114;SHT31;59989;46.220;19.888;2022-10-26T13:22:04;22.10;62.29
72114;SHT31;59989;46.220;19.888;2022-10-26T13:25:19;21.78;63.79
72114;SHT31;59989;46.220;19.888;2022-10-26T13:28:43;21.90;63.33
72114;SHT31;59989;46.220;19.888;2022-10-26T13:34:49;22.51;62.10
72114;SHT31;59989;46.220;19.888;2022-10-26T13:37:54;22.33;62.24
72114;SHT31;59989;46.220;19.888;2022-10-26T13:41:06;22.39;61.73
72114;SHT31;59989;46.220;19.888;2022-10-26T13:44:21;21.90;62.56
72114;SHT31;59989;46.220;19.888;2022-10-26T13:47:38;21.66;62.98
72114;SHT31;59989;46.220;19.888;2022-10-26T13:50:48;21.21;63.95
72114;SHT31;59989;46.220;19.888;2022-10-26T13:53:57;21.17;63.65
72114;SHT31;59989;46.220;19.888;2022-10-26T13:57:18;21.03;64.12
72114;SHT31;59989;46.220;19.888;2022-10-26T14:00:22;20.83;63.87
72114;SHT31;59989;46.220;19.888;2022-10-26T14:03:25;20.69;63.32
72114;SHT31;59989;46.220;19.888;2022-10-26T14:06:33;20.66;62.71
72114;SHT31;59989;46.220;19.888;2022-10-26T14:09:36;20.55;62.78
72114;SHT31;59989;46.220;19.888;2022-10-26T14:12:39;20.42;64.07
72114;SHT31;59989;46.220;19.888;2022-10-26T14:15:43;20.25;63.98
72114;SHT31;59989;46.220;19.888;2022-10-26T14:18:47;20.05;64.50
72114;SHT31;59989;46.220;19.888;2022-10-26T14:21:50;19.78;65.04
72114;SHT31;59989;46.220;19.888;2022-10-26T14:24:58;19.75;65.61
72114;SHT31;59989;46.220;19.888;2022-10-26T14:28:01;19.66;65.23
72114;SHT31;59989;46.220;19.888;2022-10-26T14:31:28;19.59;65.67
72114;SHT31;59989;46.220;19.888;2022-10-26T14:34:30;19.43;66.40
72114;SHT31;59989;46.220;19.888;2022-10-26T14:37:41;19.26;66.83
72114;SHT31;59989;46.220;19.888;2022-10-26T14:40:46;19.08;67.61
72114;SHT31;59989;46.220;19.888;2022-10-26T14:43:49;18.78;68.51
72114;SHT31;59989;46.220;19.888;2022-10-26T14:46:52;18.67;68.88
72114;SHT31;59989;46.220;19.888;2022-10-26T14:49:55;18.57;69.35
72114;SHT31;59989;46.220;19.888;2022-10-26T14:53:16;18.45;70.30
72114;SHT31;59989;46.220;19.888;2022-10-26T14:56:38;18.37;70.42
72114;SHT31;59989;46.220;19.888;2022-10-26T14:59:41;18.22;71.39
72114;SHT31;59989;46.220;19.888;2022-10-26T15:02:45;18.12;71.77
72114;SHT31;59989;46.220;19.888;2022-10-26T15:05:49;17.92;72.12
72114;SHT31;59989;46.220;19.888;2022-10-26T15:08:56;17.83;72.54
72114;SHT31;59989;46.220;19.888;2022-10-26T15:11:59;17.72;73.37
72114;SHT31;59989;46.220;19.888;2022-10-26T15:18:27;17.45;74.02
72114;SHT31;59989;46.220;19.888;2022-10-26T15:21:36;17.35;74.47
72114;SHT31;59989;46.220;19.888;2022-10-26T15:24:41;17.26;75.45
72114;SHT31;59989;46.220;19.888;2022-10-26T15:27:44;17.16;75.20
72114;SHT31;59989;46.220;19.888;2022-10-26T15:31:21;17.13;75.46
72114;SHT31;59989;46.220;19.888;2022-10-26T15:34:25;17.06;76.00
72114;SHT31;59989;46.220;19.888;2022-10-26T15:37:27;16.97;76.01
72114;SHT31;59989;46.220;19.888;2022-10-26T15:40:30;16.93;75.92
72114;SHT31;59989;46.220;19.888;2022-10-26T15:43:33;16.86;76.09
72114;SHT31;59989;46.220;19.888;2022-10-26T15:46:35;16.80;76.66
72114;SHT31;59989;46.220;19.888;2022-10-26T15:49:40;16.73;77.25
72114;SHT31;59989;46.220;19.888;2022-10-26T15:52:42;16.68;77.10
72114;SHT31;59989;46.220;19.888;2022-10-26T15:55:51;16.62;77.47
72114;SHT31;59989;46.220;19.888;2022-10-26T15:58:54;16.61;77.07
72114;SHT31;59989;46.220;19.888;2022-10-26T16:01:57;16.58;77.96
72114;SHT31;59989;46.220;19.888;2022-10-26T16:05:00;16.51;76.76
72114;SHT31;59989;46.220;19.888;2022-10-26T16:08:02;16.52;76.51
72114;SHT31;59989;46.220;19.888;2022-10-26T16:11:05;16.48;76.64
72114;SHT31;59989;46.220;19.888;2022-10-26T16:14:09;16.45;76.77
72114;SHT31;59989;46.220;19.888;2022-10-26T16:17:11;16.41;76.57
72114;SHT31;59989;46.220;19.888;2022-10-26T16:20:22;16.38;76.30
72114;SHT31;59989;46.220;19.888;2022-10-26T16:23:25;16.42;75.46
72114;SHT31;59989;46.220;19.888;2022-10-26T16:26:28;16.44;74.99
72114;SHT31;59989;46.220;19.888;2022-10-26T16:29:31;16.41;75.43
72114;SHT31;59989;46.220;19.888;2022-10-26T16:32:33;16.40;75.31
72114;SHT31;59989;46.220;19.888;2022-10-26T16:35:35;16.33;75.83
72114;SHT31;59989;46.220;19.888;2022-10-26T16:38:38;16.31;76.12
72114;SHT31;59989;46.220;19.888;2022-10-26T16:41:41;16.26;75.96
72114;SHT31;59989;46.220;19.888;2022-10-26T16:44:43;16.24;76.02
72114;SHT31;59989;46.220;19.888;2022-10-26T16:47:46;16.22;75.89
72114;SHT31;59989;46.220;19.888;2022-10-26T16:50:49;16.20;76.45
72114;SHT31;59989;46.220;19.888;2022-10-26T16:53:53;16.17;77.00
72114;SHT31;59989;46.220;19.888;2022-10-26T16:56:56;16.12;77.56
72114;SHT31;59989;46.220;19.888;2022-10-26T16:59:58;16.05;78.18
72114;SHT31;59989;46.220;19.888;2022-10-26T17:03:00;16.01;78.23
72114;SHT31;59989;46.220;19.888;2022-10-26T17:06:06;15.94;78.29
72114;SHT31;59989;46.220;19.888;2022-10-26T17:09:08;15.89;80.09
72114;SHT31;59989;46.220;19.888;2022-10-26T17:12:11;15.80;79.94
72114;SHT31;59989;46.220;19.888;2022-10-26T17:15:13;15.80;79.19
72114;SHT31;59989;46.220;19.888;2022-10-26T17:18:21;15.80;79.22
72114;SHT31;59989;46.220;19.888;2022-10-26T17:21:32;15.77;80.03
72114;SHT31;59989;46.220;19.888;2022-10-26T17:24:35;15.77;79.76
72114;SHT31;59989;46.220;19.888;2022-10-26T17:27:38;15.77;79.37
72114;SHT31;59989;46.220;19.888;2022-10-26T17:30:47;15.82;79.21
72114;SHT31;59989;46.220;19.888;2022-10-26T17:33:51;15.83;78.98
72114;SHT31;59989;46.220;19.888;2022-10-26T17:36:53;15.83;79.36
72114;SHT31;59989;46.220;19.888;2022-10-26T17:39:56;15.80;79.44
72114;SHT31;59989;46.220;19.888;2022-10-26T17:42:59;15.71;79.56
72114;SHT31;59989;46.220;19.888;2022-10-26T17:46:22;15.70;79.78
72114;SHT31;59989;46.220;19.888;2022-10-26T17:49:27;15.70;79.13
72114;SHT31;59989;46.220;19.888;2022-10-26T17:52:35;15.73;79.47
72114;SHT31;59989;46.220;19.888;2022-10-26T17:55:37;15.73;79.35
72114;SHT31;59989;46.220;19.888;2022-10-26T17:58:40;15.71;80.01
72114;SHT31;59989;46.220;19.888;2022-10-26T18:01:42;15.69;79.51
72114;SHT31;59989;46.220;19.888;2022-10-26T18:04:45;15.70;81.21
72114;SHT31;59989;46.220;19.888;2022-10-26T18:07:48;15.64;80.05
72114;SHT31;59989;46.220;19.888;2022-10-26T18:10:53;15.63;81.12
72114;SHT31;59989;46.220;19.888;2022-10-26T18:13:59;15.56;80.96
72114;SHT31;59989;46.220;19.888;2022-10-26T18:17:02;15.50;80.86
72114;SHT31;59989;46.220;19.888;2022-10-26T18:20:05;15.46;81.26
72114;SHT31;59989;46.220;19.888;2022-10-26T18:23:08;15.46;81.13
72114;SHT31;59989;46.220;19.888;2022-10-26T18:26:15;15.45;81.68
72114;SHT31;59989;46.220;19.888;2022-10-26T18:29:18;15.35;82.13
72114;SHT31;59989;46.220;19.888;2022-10-26T18:32:20;15.31;82.45
72114;SHT31;59989;46.220;19.888;2022-10-26T18:35:23;15.22;83.16
72114;SHT31;59989;46.220;19.888;2022-10-26T18:38:26;15.12;83.76
72114;SHT31;59989;46.220;19.888;2022-10-26T18:41:29;15.05;84.01
72114;SHT31;59989;46.220;19.888;2022-10-26T18:44:32;15.01;83.71
72114;SHT31;59989;46.220;19.888;2022-10-26T18:47:34;15.04;83.10
72114;SHT31;59989;46.220;19.888;2022-10-26T18:50:38;15.01;82.94
72114;SHT31;59989;46.220;19.888;2022-10-26T18:53:42;15.05;82.82
72114;SHT31;59989;46.220;19.888;2022-10-26T18:56:45;15.09;82.59
72114;SHT31;59989;46.220;19.888;2022-10-26T18:59:47;15.14;82.08
72114;SHT31;59989;46.220;19.888;2022-10-26T19:02:56;15.22;81.71
72114;SHT31;59989;46.220;19.888;2022-10-26T19:06:17;15.21;81.72
72114;SHT31;59989;46.220;19.888;2022-10-26T19:09:20;15.19;81.86
72114;SHT31;59989;46.220;19.888;2022-10-26T19:12:22;15.22;81.45
72114;SHT31;59989;46.220;19.888;2022-10-26T19:15:25;15.21;81.58
72114;SHT31;59989;46.220;19.888;2022-10-26T19:18:28;15.16;81.73
72114;SHT31;59989;46.220;19.888;2022-10-26T19:21:31;15.16;81.92
72114;SHT31;59989;46.220;19.888;2022-10-26T19:24:33;15.12;82.26
72114;SHT31;59989;46.220;19.888;2022-10-26T19:27:36;15.11;82.47
72114;SHT31;59989;46.220;19.888;2022-10-26T19:30:39;15.08;82.72
72114;SHT31;59989;46.220;19.888;2022-10-26T19:33:41;15.06;83.24
72114;SHT31;59989;46.220;19.888;2022-10-26T19:36:45;15.04;83.67
72114;SHT31;59989;46.220;19.888;2022-10-26T19:39:48;15.01;83.89
72114;SHT31;59989;46.220;19.888;2022-10-26T19:42:52;14.92;84.84
72114;SHT31;59989;46.220;19.888;2022-10-26T19:45:55;14.85;84.46
72114;SHT31;59989;46.220;19.888;2022-10-26T19:49:00;14.89;83.91
72114;SHT31;59989;46.220;19.888;2022-10-26T19:52:03;14.91;84.17
72114;SHT31;59989;46.220;19.888;2022-10-26T19:55:07;14.88;84.43
72114;SHT31;59989;46.220;19.888;2022-10-26T19:58:10;14.85;84.46
72114;SHT31;59989;46.220;19.888;2022-10-26T20:01:14;14.80;84.47
72114;SHT31;59989;46.220;19.888;2022-10-26T20:04:17;14.70;84.73
72114;SHT31;59989;46.220;19.888;2022-10-26T20:07:21;14.59;85.28
72114;SHT31;59989;46.220;19.888;2022-10-26T20:10:24;14.49;85.54
72114;SHT31;59989;46.220;19.888;2022-10-26T20:13:27;14.47;85.57
72114;SHT31;59989;46.220;19.888;2022-10-26T20:16:30;14.46;85.62
72114;SHT31;59989;46.220;19.888;2022-10-26T20:19:33;14.44;85.87
72114;SHT31;59989;46.220;19.888;2022-10-26T20:22:36;14.50;85.76
72114;SHT31;59989;46.220;19.888;2022-10-26T20:25:44;14.47;85.84
72114;SHT31;59989;46.220;19.888;2022-10-26T20:28:48;14.41;86.21
72114;SHT31;59989;46.220;19.888;2022-10-26T20:31:52;14.37;86.18
72114;SHT31;59989;46.220;19.888;2022-10-26T20:34:57;14.40;85.85
72114;SHT31;59989;46.220;19.888;2022-10-26T20:38:00;14.46;85.68
72114;SHT31;59989;46.220;19.888;2022-10-26T20:41:03;14.40;86.16
72114;SHT31;59989;46.220;19.888;2022-10-26T20:44:23;14.40;86.32
72114;SHT31;59989;46.220;19.888;2022-10-26T20:47:28;14.36;86.70
72114;SHT31;59989;46.220;19.888;2022-10-26T20:50:31;14.32;86.73
72114;SHT31;59989;46.220;19.888;2022-10-26T20:53:37;14.33;86.92
72114;SHT31;59989;46.220;19.888;2022-10-26T20:56:41;14.30;87.06
72114;SHT31;59989;46.220;19.888;2022-10-26T20:59:51;14.28;87.40
72114;SHT31;59989;46.220;19.888;2022-10-26T21:02:54;14.20;88.06
72114;SHT31;59989;46.220;19.888;2022-10-26T21:05:56;14.18;87.81
72114;SHT31;59989;46.220;19.888;2022-10-26T21:08:59;14.18;88.16